Aviation Digital Data Service (ADDS)

Output produced by METARs form (1125 UTC 19 January 2019)
found at http://www.aviationweather.gov/metar/data/
 
FMCV 191100Z 34006KT 9999 SCT020 31/26 Q1009
FMCH 191100Z 35011KT 320V020 9999 FEW020TCU SCT030 32/26 Q1009 NOSIG
TAF FMCH 191100Z 1912/2018 35010KT 9999 FEW020 SCT030 
     BECMG 1916/1918 10003KT 
     BECMG 2005/2007 30010KT